Time,TemperatureF,DewpointF,PressureIn,WindDirection,WindDirectionDegrees,WindSpeedMPH,WindSpeedGustMPH,Humidity,HourlyPrecipIn,Conditions,Clouds,dailyrainin,SoftwareType,DateUTC
2013-08-11 00:04:00,61.9,56.3,24.68,East,90,3.5,3.5,82,0.00,CLR,,0.00,WeatherDisplay:10.37,2013-08-11 06:04:00,
2013-08-11 00:09:00,61.7,56.1,24.68,NE,45,8.1,8.1,82,0.00,CLR,,0.00,WeatherDisplay:10.37,2013-08-11 06:09:00,
2013-08-11 00:14:00,61.9,56.7,24.69,North,0,10.4,10.4,83,0.00,CLR,,0.00,WeatherDisplay:10.37,2013-08-11 06:14:00,
2013-08-11 00:19:00,61.7,56.1,24.68,North,0,9.2,9.2,82,0.00,CLR,,0.00,WeatherDisplay:10.37,2013-08-11 06:19:00,
2013-08-11 00:24:00,61.9,56.3,24.68,NE,45,3.5,3.5,82,0.00,CLR,,0.00,WeatherDisplay:10.37,2013-08-11 06:24:00,
2013-08-11 00:30:00,61.9,55.6,24.68,West,270,3.5,3.5,80,0.00,CLR,,0.00,WeatherDisplay:10.37,2013-08-11 06:30:00,
2013-08-11 00:35:00,62.1,56.5,24.67,NW,315,6.9,6.9,82,0.00,CLR,,0.00,WeatherDisplay:10.37,2013-08-11 06:35:00,
2013-08-11 00:41:00,61.9,56.7,24.67,West,270,5.8,5.8,83,0.00,CLR,,0.00,WeatherDisplay:10.37,2013-08-11 06:41:00,
2013-08-11 00:46:00,61.9,56.7,24.66,SE,135,4.6,4.6,83,0.00,CLR,,0.00,WeatherDisplay:10.37,2013-08-11 06:46:00,
2013-08-11 00:51:00,62.1,56.2,24.66,South,180,4.6,4.6,81,0.00,CLR,,0.00,WeatherDisplay:10.37,2013-08-11 06:51:00,
2013-08-11 00:56:00,62.1,55.8,24.65,SW,225,4.6,4.6,80,0.00,CLR,,0.00,WeatherDisplay:10.37,2013-08-11 06:56:00,
2013-08-11 01:01:00,62.1,56.2,24.65,South,180,3.5,3.5,81,0.00,CLR,,0.00,WeatherDisplay:10.37,2013-08-11 07:01:00,
2013-08-11 01:07:00,61.9,56.3,24.65,NW,315,2.3,2.3,82,0.00,CLR,,0.00,WeatherDisplay:10.37,2013-08-11 07:07:00,
2013-08-11 01:12:00,61.7,56.1,24.65,North,0,5.8,5.8,82,0.00,CLR,,0.00,WeatherDisplay:10.37,2013-08-11 07:12:00,
2013-08-11 01:17:00,61.5,56.3,24.65,North,0,8.1,8.1,83,0.00,CLR,,0.00,WeatherDisplay:10.37,2013-08-11 07:17:00,
2013-08-11 01:23:00,61.3,56.5,24.65,NE,45,5.8,5.8,84,0.00,CLR,,0.00,WeatherDisplay:10.37,2013-08-11 07:23:00,
2013-08-11 01:28:00,61.3,56.5,24.65,North,0,6.9,6.9,84,0.00,CLR,,0.00,WeatherDisplay:10.37,2013-08-11 07:28:00,
2013-08-11 01:33:00,61.3,56.5,24.63,NW,315,6.9,6.9,84,0.00,CLR,,0.00,WeatherDisplay:10.37,2013-08-11 07:33:00,
2013-08-11 01:38:00,61.3,56.5,24.63,NW,315,6.9,6.9,84,0.00,CLR,,0.00,WeatherDisplay:10.37,2013-08-11 07:38:00,
2013-08-11 01:44:00,61.3,56.5,24.63,NW,315,5.8,5.8,84,0.00,CLR,,0.00,WeatherDisplay:10.37,2013-08-11 07:44:00,
2013-08-11 01:49:00,61.3,56.5,24.63,North,0,5.8,5.8,84,0.00,CLR,,0.00,WeatherDisplay:10.37,2013-08-11 07:49:00,
2013-08-11 01:54:00,61.3,56.5,24.62,North,0,5.8,5.8,84,0.00,CLR,,0.00,WeatherDisplay:10.37,2013-08-11 07:54:00,
2013-08-11 02:00:00,61.3,56.5,24.62,NW,315,5.8,5.8,84,0.00,CLR,,0.00,WeatherDisplay:10.37,2013-08-11 08:00:00,
2013-08-11 02:05:00,61.3,56.5,24.62,NW,315,4.6,4.6,84,0.00,CLR,,0.00,WeatherDisplay:10.37,2013-08-11 08:05:00,
2013-08-11 02:10:00,61.3,56.5,24.62,NW,315,5.8,5.8,84,0.00,CLR,,0.00,WeatherDisplay:10.37,2013-08-11 08:10:00,
2013-08-11 02:15:00,61.3,56.8,24.62,NW,315,4.6,4.6,85,0.00,CLR,,0.00,WeatherDisplay:10.37,2013-08-11 08:15:00,
2013-08-11 02:20:00,61.3,56.5,24.62,North,0,5.8,5.8,84,0.00,CLR,,0.00,WeatherDisplay:10.37,2013-08-11 08:20:00,
2013-08-11 02:26:00,61.3,56.8,24.62,North,0,4.6,4.6,85,0.00,CLR,,0.00,WeatherDisplay:10.37,2013-08-11 08:26:00,
2013-08-11 02:31:00,61.3,56.8,24.61,NW,315,4.6,4.6,85,0.00,CLR,,0.00,WeatherDisplay:10.37,2013-08-11 08:31:00,
2013-08-11 02:36:00,61.3,56.5,24.61,NW,315,6.9,6.9,84,0.00,CLR,,0.00,WeatherDisplay:10.37,2013-08-11 08:36:00,
2013-08-11 02:42:00,61.5,56.3,24.62,West,270,5.8,5.8,83,0.00,CLR,,0.00,WeatherDisplay:10.37,2013-08-11 08:42:00,
2013-08-11 02:47:00,61.7,56.5,24.62,SW,225,5.8,5.8,83,0.00,CLR,,0.00,WeatherDisplay:10.37,2013-08-11 08:47:00,
2013-08-11 02:52:00,61.5,56.3,24.62,North,0,4.6,4.6,83,0.00,CLR,,0.00,WeatherDisplay:10.37,2013-08-11 08:52:00,
2013-08-11 02:57:00,61.3,56.1,24.62,NW,315,3.5,3.5,83,0.00,CLR,,0.00,WeatherDisplay:10.37,2013-08-11 08:57:00,
2013-08-11 03:03:00,61.2,56.0,24.61,West,270,3.5,3.5,83,0.00,CLR,,0.00,WeatherDisplay:10.37,2013-08-11 09:03:00,
2013-08-11 03:08:00,61.2,55.6,24.61,North,0,5.8,5.8,82,0.00,CLR,,0.00,WeatherDisplay:10.37,2013-08-11 09:08:00,
2013-08-11 03:14:00,61.0,55.8,24.61,North,0,3.5,3.5,83,0.00,CLR,,0.00,WeatherDisplay:10.37,2013-08-11 09:14:00,
2013-08-11 03:19:00,60.8,55.9,24.61,North,0,2.3,0.0,84,0.00,CLR,,0.00,WeatherDisplay:10.37,2013-08-11 09:19:00,
2013-08-11 03:24:00,60.8,55.9,24.61,NW,315,3.5,3.5,84,0.00,CLR,,0.00,WeatherDisplay:10.37,2013-08-11 09:24:00,
2013-08-11 03:30:00,61.0,56.1,24.61,NW,315,5.8,5.8,84,0.00,CLR,,0.00,WeatherDisplay:10.37,2013-08-11 09:30:00,
2013-08-11 03:35:00,61.0,56.1,24.61,West,270,5.8,5.8,84,0.00,CLR,,0.00,WeatherDisplay:10.37,2013-08-11 09:35:00,
2013-08-11 03:40:00,61.2,56.0,24.61,SW,225,1.1,0.0,83,0.00,CLR,,0.00,WeatherDisplay:10.37,2013-08-11 09:40:00,
2013-08-11 03:46:00,61.0,56.1,24.62,SW,225,3.5,3.5,84,0.00,CLR,,0.00,WeatherDisplay:10.37,2013-08-11 09:46:00,
2013-08-11 03:51:00,60.6,56.1,24.61,West,270,3.5,3.5,85,0.00,CLR,,0.00,WeatherDisplay:10.37,2013-08-11 09:51:00,
2013-08-11 03:56:00,60.8,55.6,24.61,SW,225,3.5,3.5,83,0.00,CLR,,0.00,WeatherDisplay:10.37,2013-08-11 09:56:00,
2013-08-11 04:01:00,60.8,55.6,24.61,NW,315,2.3,2.3,83,0.00,CLR,,0.00,WeatherDisplay:10.37,2013-08-11 10:01:00,
2013-08-11 04:06:00,60.8,55.6,24.61,NW,315,2.3,2.3,83,0.00,CLR,,0.00,WeatherDisplay:10.37,2013-08-11 10:06:00,
2013-08-11 04:13:00,60.4,55.9,24.61,NW,315,1.1,1.6,85,0.00,CLR,,0.00,WeatherDisplay:10.37,2013-08-11 10:13:00,
2013-08-11 04:18:00,60.4,55.9,24.60,NW,315,3.5,3.5,85,0.00,CLR,,0.00,WeatherDisplay:10.37,2013-08-11 10:18:00,
2013-08-11 04:23:00,60.3,56.1,24.61,North,0,2.3,2.3,86,0.00,CLR,,0.00,WeatherDisplay:10.37,2013-08-11 10:23:00,
2013-08-11 04:28:00,60.3,56.1,24.60,NW,315,3.5,3.5,86,0.00,CLR,,0.00,WeatherDisplay:10.37,2013-08-11 10:28:00,
2013-08-11 04:33:00,60.3,56.4,24.61,North,0,3.5,3.5,87,0.00,CLR,,0.00,WeatherDisplay:10.37,2013-08-11 10:33:00,
2013-08-11 04:38:00,60.3,56.1,24.61,NE,45,2.3,2.3,86,0.00,CLR,,0.00,WeatherDisplay:10.37,2013-08-11 10:38:00,
2013-08-11 04:44:00,60.3,56.1,24.61,East,90,1.1,0.0,86,0.00,CLR,,0.00,WeatherDisplay:10.37,2013-08-11 10:44:00,
2013-08-11 04:49:00,60.4,55.9,24.61,SE,135,1.1,1.1,85,0.00,CLR,,0.00,WeatherDisplay:10.37,2013-08-11 10:49:00,
2013-08-11 04:54:00,60.4,55.9,24.61,South,180,1.1,0.0,85,0.00,CLR,,0.00,WeatherDisplay:10.37,2013-08-11 10:54:00,
2013-08-11 05:00:00,60.3,55.7,24.60,NW,315,1.1,0.0,85,0.00,CLR,,0.00,WeatherDisplay:10.37,2013-08-11 11:00:00,
2013-08-11 05:05:00,60.1,55.6,24.61,NE,45,0.0,0.0,85,0.00,CLR,,0.00,WeatherDisplay:10.37,2013-08-11 11:05:00,
2013-08-11 05:10:00,60.3,55.7,24.61,South,180,1.1,1.6,85,0.00,CLR,,0.00,WeatherDisplay:10.37,2013-08-11 11:10:00,
2013-08-11 05:17:00,60.1,55.9,24.61,SE,135,2.3,0.0,86,0.00,CLR,,0.00,WeatherDisplay:10.37,2013-08-11 11:17:00,
2013-08-11 05:23:00,59.9,55.7,24.61,South,180,1.1,1.6,86,0.00,CLR,,0.00,WeatherDisplay:10.37,2013-08-11 11:23:00,
2013-08-11 05:28:00,60.1,56.2,24.61,South,180,4.6,4.6,87,0.00,CLR,,0.00,WeatherDisplay:10.37,2013-08-11 11:28:00,
2013-08-11 05:33:00,60.1,56.2,24.61,West,270,1.1,0.0,87,0.00,CLR,,0.00,WeatherDisplay:10.37,2013-08-11 11:33:00,
2013-08-11 05:38:00,59.9,56.0,24.61,South,180,1.1,0.0,87,0.00,CLR,,0.00,WeatherDisplay:10.37,2013-08-11 11:38:00,
2013-08-11 05:43:00,59.7,56.2,24.61,SW,225,1.1,0.0,88,0.00,CLR,,0.00,WeatherDisplay:10.37,2013-08-11 11:43:00,
2013-08-11 05:49:00,59.7,56.5,24.61,SE,135,3.5,3.5,89,0.00,CLR,,0.00,WeatherDisplay:10.37,2013-08-11 11:49:00,
2013-08-11 05:54:00,59.7,56.8,24.61,South,180,3.5,3.5,90,0.00,CLR,,0.00,WeatherDisplay:10.37,2013-08-11 11:54:00,
2013-08-11 06:00:00,59.7,56.5,24.62,West,270,2.3,2.3,89,0.00,CLR,,0.00,WeatherDisplay:10.37,2013-08-11 12:00:00,
2013-08-11 06:05:00,59.7,56.5,24.63,West,270,2.3,2.3,89,0.00,CLR,,0.00,WeatherDisplay:10.37,2013-08-11 12:05:00,
2013-08-11 06:10:00,59.9,56.6,24.63,NW,315,3.5,3.5,89,0.00,CLR,,0.00,WeatherDisplay:10.37,2013-08-11 12:10:00,
2013-08-11 06:16:00,59.7,56.2,24.62,SW,225,0.0,0.0,88,0.00,CLR,,0.00,WeatherDisplay:10.37,2013-08-11 12:16:00,
2013-08-11 06:21:00,59.5,56.3,24.62,South,180,5.8,5.8,89,0.00,CLR,,0.00,WeatherDisplay:10.37,2013-08-11 12:21:00,
2013-08-11 06:26:00,59.5,56.3,24.63,West,270,2.3,2.3,89,0.00,CLR,,0.00,WeatherDisplay:10.37,2013-08-11 12:26:00,
2013-08-11 06:31:00,59.5,56.3,24.64,SW,225,2.3,2.3,89,0.00,CLR,,0.00,WeatherDisplay:10.37,2013-08-11 12:31:00,
2013-08-11 06:36:00,59.5,56.6,24.64,West,270,3.5,3.5,90,0.00,CLR,,0.00,WeatherDisplay:10.37,2013-08-11 12:36:00,
2013-08-11 06:42:00,59.5,56.9,24.64,NW,315,3.5,3.5,91,0.00,CLR,,0.00,WeatherDisplay:10.37,2013-08-11 12:42:00,
2013-08-11 06:47:00,59.5,57.2,24.64,NW,315,3.5,3.5,92,0.00,CLR,,0.00,WeatherDisplay:10.37,2013-08-11 12:47:00,
2013-08-11 06:52:00,59.5,57.2,24.65,West,270,3.5,3.5,92,0.00,CLR,,0.00,WeatherDisplay:10.37,2013-08-11 12:52:00,
2013-08-11 06:57:00,59.7,57.1,24.65,NW,315,2.3,2.3,91,0.00,CLR,,0.00,WeatherDisplay:10.37,2013-08-11 12:57:00,
2013-08-11 07:03:00,59.9,57.0,24.64,NW,315,5.8,5.8,90,0.00,CLR,,0.00,WeatherDisplay:10.37,2013-08-11 13:03:00,
2013-08-11 07:08:00,59.9,56.6,24.64,North,0,3.5,3.5,89,0.00,CLR,,0.00,WeatherDisplay:10.37,2013-08-11 13:08:00,
2013-08-11 07:13:00,60.3,57.0,24.64,NW,315,3.5,3.5,89,0.00,CLR,,0.00,WeatherDisplay:10.37,2013-08-11 13:13:00,
2013-08-11 07:19:00,60.8,56.9,24.64,NW,315,3.5,3.5,87,0.00,CLR,,0.00,WeatherDisplay:10.37,2013-08-11 13:19:00,
2013-08-11 07:24:00,60.8,56.9,24.64,NW,315,3.5,3.5,87,0.00,CLR,,0.00,WeatherDisplay:10.37,2013-08-11 13:24:00,
2013-08-11 07:29:00,61.2,57.3,24.64,North,0,2.3,2.3,87,0.00,CLR,,0.00,WeatherDisplay:10.37,2013-08-11 13:29:00,
2013-08-11 07:34:00,61.5,57.3,24.64,NE,45,3.5,3.5,86,0.00,CLR,,0.00,WeatherDisplay:10.37,2013-08-11 13:34:00,
2013-08-11 07:39:00,62.4,57.8,24.64,North,0,2.3,2.3,85,0.00,CLR,,0.00,WeatherDisplay:10.37,2013-08-11 13:39:00,
2013-08-11 07:45:00,63.7,58.8,24.65,NW,315,1.1,0.0,84,0.00,CLR,,0.00,WeatherDisplay:10.37,2013-08-11 13:45:00,
2013-08-11 07:50:00,65.3,59.3,24.64,NE,45,1.1,0.0,81,0.00,CLR,,0.00,WeatherDisplay:10.37,2013-08-11 13:50:00,
2013-08-11 07:55:00,65.7,58.3,24.65,North,0,1.1,1.1,77,0.00,CLR,,0.00,WeatherDisplay:10.37,2013-08-11 13:55:00,
2013-08-11 08:00:00,65.5,57.7,24.64,North,0,1.1,0.0,76,0.00,CLR,,0.00,WeatherDisplay:10.37,2013-08-11 14:00:00,
2013-08-11 08:06:00,65.5,57.7,24.64,North,0,1.1,0.0,76,0.00,CLR,,0.00,WeatherDisplay:10.37,2013-08-11 14:06:00,
2013-08-11 08:11:00,65.1,55.1,24.64,NE,45,1.1,1.6,70,0.00,CLR,,0.00,WeatherDisplay:10.37,2013-08-11 14:11:00,
2013-08-11 08:16:00,65.3,55.7,24.64,SE,135,1.1,1.6,71,0.00,CLR,,0.00,WeatherDisplay:10.37,2013-08-11 14:16:00,
2013-08-11 08:22:00,64.6,55.7,24.64,SE,135,3.5,3.5,73,0.00,CLR,,0.00,WeatherDisplay:10.37,2013-08-11 14:22:00,
2013-08-11 08:27:00,64.2,55.8,24.65,East,90,3.5,3.5,74,0.00,CLR,,0.00,WeatherDisplay:10.37,2013-08-11 14:27:00,
2013-08-11 08:33:00,65.3,56.8,24.65,SE,135,2.3,2.3,74,0.00,CLR,,0.00,WeatherDisplay:10.37,2013-08-11 14:33:00,
2013-08-11 08:38:00,65.8,56.2,24.65,South,180,3.5,3.5,71,0.00,CLR,,0.00,WeatherDisplay:10.37,2013-08-11 14:38:00,
2013-08-11 08:44:00,67.5,56.1,24.65,South,180,1.1,0.0,67,0.00,CLR,,0.00,WeatherDisplay:10.37,2013-08-11 14:44:00,
2013-08-11 08:49:00,68.2,56.0,24.65,SW,225,3.5,0.0,65,0.00,CLR,,0.00,WeatherDisplay:10.37,2013-08-11 14:49:00,
2013-08-11 08:54:00,71.2,56.2,24.65,South,180,3.5,3.5,59,0.00,CLR,,0.00,WeatherDisplay:10.37,2013-08-11 14:54:00,
2013-08-11 08:59:00,71.4,55.9,24.65,ESE,112,4.6,4.6,58,0.00,CLR,,0.00,WeatherDisplay:10.37,2013-08-11 14:59:00,
2013-08-11 09:05:00,71.2,56.2,24.65,SW,225,3.5,3.5,59,0.00,CLR,,0.00,WeatherDisplay:10.37,2013-08-11 15:05:00,
2013-08-11 09:11:00,70.5,55.0,24.65,South,180,5.8,5.8,58,0.00,CLR,,0.00,WeatherDisplay:10.37,2013-08-11 15:11:00,
2013-08-11 09:16:00,70.0,55.5,24.65,SE,135,4.5,4.5,60,0.00,CLR,,0.00,WeatherDisplay:10.37,2013-08-11 15:16:00,
2013-08-11 09:21:00,69.1,56.0,24.65,SE,135,3.5,3.5,63,0.00,CLR,,0.00,WeatherDisplay:10.37,2013-08-11 15:21:00,
2013-08-11 09:26:00,70.0,55.0,24.65,SW,225,5.8,5.8,59,0.00,CLR,,0.00,WeatherDisplay:10.37,2013-08-11 15:26:00,
2013-08-11 09:31:00,68.7,53.8,24.65,SE,135,8.1,8.1,59,0.00,CLR,,0.00,WeatherDisplay:10.37,2013-08-11 15:31:00,
2013-08-11 09:36:00,68.4,54.8,24.64,East,90,3.5,3.5,62,0.00,CLR,,0.00,WeatherDisplay:10.37,2013-08-11 15:36:00,
2013-08-11 09:41:00,69.8,56.2,24.65,SE,135,3.5,3.5,62,0.00,CLR,,0.00,WeatherDisplay:10.37,2013-08-11 15:41:00,
2013-08-11 09:47:00,71.8,55.7,24.65,South,180,6.9,6.9,57,0.00,CLR,,0.00,WeatherDisplay:10.37,2013-08-11 15:47:00,
2013-08-11 09:52:00,72.5,54.9,24.65,East,90,6.9,6.9,54,0.00,CLR,,0.00,WeatherDisplay:10.37,2013-08-11 15:52:00,
2013-08-11 09:57:00,72.9,55.2,24.65,South,180,5.8,5.8,54,0.00,CLR,,0.00,WeatherDisplay:10.37,2013-08-11 15:57:00,
2013-08-11 10:02:00,72.9,55.2,24.65,SE,135,3.5,3.5,54,0.00,CLR,,0.00,WeatherDisplay:10.37,2013-08-11 16:02:00,
2013-08-11 10:07:00,72.9,55.2,24.65,SE,135,3.5,3.5,54,0.00,CLR,,0.00,WeatherDisplay:10.37,2013-08-11 16:07:00,
2013-08-11 10:12:00,72.0,55.4,24.65,SW,225,6.9,6.9,56,0.00,CLR,,0.00,WeatherDisplay:10.37,2013-08-11 16:12:00,
2013-08-11 10:17:00,72.0,55.4,24.65,SE,135,5.8,5.8,56,0.00,CLR,,0.00,WeatherDisplay:10.37,2013-08-11 16:17:00,
2013-08-11 10:23:00,72.7,54.6,24.65,South,180,5.8,5.8,53,0.00,CLR,,0.00,WeatherDisplay:10.37,2013-08-11 16:23:00,
2013-08-11 10:28:00,73.0,55.4,24.65,SE,135,5.8,5.8,54,0.00,CLR,,0.00,WeatherDisplay:10.37,2013-08-11 16:28:00,
2013-08-11 10:33:00,72.5,54.9,24.65,South,180,8.1,8.1,54,0.00,CLR,,0.00,WeatherDisplay:10.37,2013-08-11 16:33:00,
2013-08-11 10:38:00,73.8,55.6,24.64,SW,225,10.4,10.4,53,0.00,CLR,,0.00,WeatherDisplay:10.37,2013-08-11 16:38:00,
2013-08-11 10:44:00,74.7,55.9,24.65,South,180,6.9,6.9,52,0.00,CLR,,0.00,WeatherDisplay:10.37,2013-08-11 16:44:00,
2013-08-11 10:49:00,73.2,54.5,24.64,ESE,112,9.2,9.2,52,0.00,CLR,,0.00,WeatherDisplay:10.37,2013-08-11 16:49:00,
2013-08-11 10:54:00,72.9,54.7,24.64,South,180,9.2,9.2,53,0.00,CLR,,0.00,WeatherDisplay:10.37,2013-08-11 16:54:00,
2013-08-11 10:59:00,73.0,54.9,24.64,SW,225,8.1,8.1,53,0.00,CLR,,0.00,WeatherDisplay:10.37,2013-08-11 16:59:00,
2013-08-11 11:05:00,73.6,55.9,24.64,SE,135,6.9,6.9,54,0.00,CLR,,0.00,WeatherDisplay:10.37,2013-08-11 17:05:00,
2013-08-11 11:10:00,75.0,56.7,24.64,West,270,3.5,3.5,53,0.00,CLR,,0.00,WeatherDisplay:10.37,2013-08-11 17:10:00,
2013-08-11 11:15:00,75.2,56.9,24.64,SW,225,3.5,3.5,53,0.00,CLR,,0.00,WeatherDisplay:10.37,2013-08-11 17:15:00,
2013-08-11 11:20:00,75.7,55.8,24.64,SW,225,3.8,3.8,50,0.00,CLR,,0.00,WeatherDisplay:10.37,2013-08-11 17:20:00,
2013-08-11 11:25:00,75.0,55.7,24.63,East,90,9.2,9.2,51,0.00,CLR,,0.00,WeatherDisplay:10.37,2013-08-11 17:25:00,
2013-08-11 11:30:00,73.6,55.9,24.63,South,180,5.8,6.0,54,0.00,CLR,,0.00,WeatherDisplay:10.37,2013-08-11 17:30:00,
2013-08-11 11:35:00,73.0,54.9,24.63,SE,135,8.1,8.1,53,0.00,CLR,,0.00,WeatherDisplay:10.37,2013-08-11 17:35:00,
2013-08-11 11:41:00,74.1,56.9,24.63,SW,225,8.1,8.1,55,0.00,CLR,,0.00,WeatherDisplay:10.37,2013-08-11 17:41:00,
2013-08-11 11:46:00,75.4,55.4,24.63,SW,225,6.9,6.9,50,0.00,CLR,,0.00,WeatherDisplay:10.37,2013-08-11 17:46:00,
2013-08-11 11:51:00,75.4,55.4,24.62,South,180,6.9,6.9,50,0.00,CLR,,0.00,WeatherDisplay:10.37,2013-08-11 17:51:00,
2013-08-11 11:56:00,75.4,55.4,24.62,South,180,11.4,11.4,50,0.00,CLR,,0.00,WeatherDisplay:10.37,2013-08-11 17:56:00,
2013-08-11 12:03:00,74.8,56.6,24.62,South,180,10.4,10.4,53,0.00,CLR,,0.00,WeatherDisplay:10.37,2013-08-11 18:03:00,
2013-08-11 12:08:00,74.8,56.6,24.62,South,180,10.4,10.4,53,0.00,CLR,,0.00,WeatherDisplay:10.37,2013-08-11 18:08:00,
2013-08-11 12:14:00,75.0,55.7,24.62,South,180,9.2,9.2,51,0.00,CLR,,0.00,WeatherDisplay:10.37,2013-08-11 18:14:00,
2013-08-11 12:19:00,74.8,56.0,24.62,SW,225,13.8,13.8,52,0.00,CLR,,0.00,WeatherDisplay:10.37,2013-08-11 18:19:00,
2013-08-11 12:24:00,76.5,56.4,24.62,SE,135,8.3,8.3,50,0.00,CLR,,0.00,WeatherDisplay:10.37,2013-08-11 18:24:00,
2013-08-11 12:29:00,76.3,56.3,24.62,South,180,8.1,8.1,50,0.00,CLR,,0.00,WeatherDisplay:10.37,2013-08-11 18:29:00,
2013-08-11 12:35:00,77.9,56.0,24.61,North,0,3.5,3.5,47,0.00,CLR,,0.00,WeatherDisplay:10.37,2013-08-11 18:35:00,
2013-08-11 12:40:00,77.2,55.4,24.61,West,270,5.8,5.8,47,0.00,CLR,,0.00,WeatherDisplay:10.37,2013-08-11 18:40:00,
2013-08-11 12:45:00,77.7,55.3,24.61,SE,135,6.0,6.0,46,0.00,CLR,,0.00,WeatherDisplay:10.37,2013-08-11 18:45:00,
2013-08-11 12:50:00,76.8,55.6,24.60,East,90,4.6,4.6,48,0.00,CLR,,0.00,WeatherDisplay:10.37,2013-08-11 18:50:00,
2013-08-11 12:56:00,78.8,55.7,24.61,South,180,6.9,6.9,45,0.00,CLR,,0.00,WeatherDisplay:10.37,2013-08-11 18:56:00,
2013-08-11 13:01:00,78.4,55.3,24.61,South,180,11.5,11.5,45,0.00,CLR,,0.00,WeatherDisplay:10.37,2013-08-11 19:01:00,
2013-08-11 13:06:00,78.6,56.1,24.60,NE,45,5.8,5.8,46,0.00,CLR,,0.00,WeatherDisplay:10.37,2013-08-11 19:06:00,
2013-08-11 13:12:00,79.5,55.7,24.60,West,270,5.8,5.8,44,0.00,CLR,,0.00,WeatherDisplay:10.37,2013-08-11 19:12:00,
2013-08-11 13:17:00,78.6,55.5,24.60,SW,225,10.4,10.4,45,0.00,CLR,,0.00,WeatherDisplay:10.37,2013-08-11 19:17:00,
2013-08-11 13:22:00,79.3,55.5,24.60,South,180,12.7,12.7,44,0.00,CLR,,0.00,WeatherDisplay:10.37,2013-08-11 19:22:00,
2013-08-11 13:27:00,79.0,54.6,24.60,SW,225,5.8,5.8,43,0.00,CLR,,0.00,WeatherDisplay:10.37,2013-08-11 19:27:00,
2013-08-11 13:32:00,78.3,54.6,24.59,SE,135,8.1,8.1,44,0.00,CLR,,0.00,WeatherDisplay:10.37,2013-08-11 19:32:00,
2013-08-11 13:37:00,79.5,55.1,24.60,NW,315,8.1,8.1,43,0.00,CLR,,0.00,WeatherDisplay:10.37,2013-08-11 19:37:00,
2013-08-11 13:43:00,79.7,55.2,24.59,South,180,9.2,9.2,43,0.00,CLR,,0.00,WeatherDisplay:10.37,2013-08-11 19:43:00,
2013-08-11 13:48:00,80.8,54.9,24.59,SW,225,11.5,11.5,41,0.00,CLR,,0.00,WeatherDisplay:10.37,2013-08-11 19:48:00,
2013-08-11 13:53:00,80.1,54.9,24.58,South,180,13.8,13.8,42,0.00,CLR,,0.00,WeatherDisplay:10.37,2013-08-11 19:53:00,
2013-08-11 13:59:00,79.7,54.6,24.59,South,180,11.5,11.5,42,0.00,CLR,,0.00,WeatherDisplay:10.37,2013-08-11 19:59:00,
2013-08-11 14:04:00,79.9,54.7,24.59,SSE,158,10.4,10.4,42,0.00,CLR,,0.00,WeatherDisplay:10.37,2013-08-11 20:04:00,
2013-08-11 14:10:00,79.9,54.7,24.59,West,270,8.1,8.1,42,0.00,CLR,,0.00,WeatherDisplay:10.37,2013-08-11 20:10:00,
2013-08-11 14:15:00,79.7,54.6,24.58,SE,135,6.9,6.9,42,0.00,CLR,,0.00,WeatherDisplay:10.37,2013-08-11 20:15:00,
2013-08-11 14:20:00,78.8,54.4,24.58,SW,225,10.4,10.4,43,0.00,CLR,,0.00,WeatherDisplay:10.37,2013-08-11 20:20:00,
2013-08-11 14:26:00,80.1,55.5,24.58,NW,315,5.8,5.8,43,0.00,CLR,,0.00,WeatherDisplay:10.37,2013-08-11 20:26:00,
2013-08-11 14:32:00,81.5,54.8,24.58,North,0,5.8,5.8,40,0.00,CLR,,0.00,WeatherDisplay:10.37,2013-08-11 20:32:00,
2013-08-11 14:37:00,81.3,53.3,24.58,SE,135,8.1,8.1,38,0.00,CLR,,0.00,WeatherDisplay:10.37,2013-08-11 20:37:00,
2013-08-11 14:43:00,80.6,53.4,24.57,SE,135,8.1,8.1,39,0.00,CLR,,0.00,WeatherDisplay:10.37,2013-08-11 20:43:00,
2013-08-11 14:48:00,81.3,52.6,24.57,SE,135,8.1,8.1,37,0.00,CLR,,0.00,WeatherDisplay:10.37,2013-08-11 20:48:00,
2013-08-11 14:54:00,80.8,52.8,24.57,SE,135,10.4,10.4,38,0.00,CLR,,0.00,WeatherDisplay:10.37,2013-08-11 20:54:00,
2013-08-11 14:59:00,81.9,53.8,24.57,South,180,8.1,8.1,38,0.00,CLR,,0.00,WeatherDisplay:10.37,2013-08-11 20:59:00,
2013-08-11 15:04:00,83.7,54.6,24.57,South,180,6.9,6.9,37,0.00,CLR,,0.00,WeatherDisplay:10.37,2013-08-11 21:04:00,
2013-08-11 15:09:00,81.7,52.1,24.57,SW,225,8.1,8.1,36,0.00,CLR,,0.00,WeatherDisplay:10.37,2013-08-11 21:09:00,
2013-08-11 15:14:00,81.5,52.7,24.56,SE,135,9.2,9.2,37,0.00,CLR,,0.00,WeatherDisplay:10.37,2013-08-11 21:14:00,
2013-08-11 15:19:00,80.2,53.0,24.56,SW,225,9.2,9.2,39,0.00,CLR,,0.00,WeatherDisplay:10.37,2013-08-11 21:19:00,
2013-08-11 15:25:00,81.7,52.1,24.56,SE,135,9.2,9.2,36,0.00,CLR,,0.00,WeatherDisplay:10.37,2013-08-11 21:25:00,
2013-08-11 15:30:00,82.6,52.9,24.56,SE,135,8.1,8.1,36,0.00,CLR,,0.00,WeatherDisplay:10.37,2013-08-11 21:30:00,
2013-08-11 15:35:00,82.6,52.9,24.55,SE,135,6.9,6.9,36,0.00,CLR,,0.00,WeatherDisplay:10.37,2013-08-11 21:35:00,
2013-08-11 15:40:00,82.0,50.9,24.55,East,90,8.1,8.1,34,0.00,CLR,,0.00,WeatherDisplay:10.37,2013-08-11 21:40:00,
2013-08-11 15:45:00,83.7,53.1,24.55,NW,315,6.9,6.9,35,0.00,CLR,,0.00,WeatherDisplay:10.37,2013-08-11 21:45:00,
2013-08-11 15:51:00,83.1,52.6,24.55,South,180,12.7,12.7,35,0.00,CLR,,0.00,WeatherDisplay:10.37,2013-08-11 21:51:00,
2013-08-11 15:57:00,81.7,49.8,24.55,East,90,10.4,10.4,33,0.00,CLR,,0.00,WeatherDisplay:10.37,2013-08-11 21:57:00,
2013-08-11 16:02:00,81.5,49.6,24.54,SW,225,10.4,10.4,33,0.00,CLR,,0.00,WeatherDisplay:10.37,2013-08-11 22:02:00,
2013-08-11 16:07:00,81.5,49.6,24.54,SW,225,10.4,10.4,33,0.00,CLR,,0.00,WeatherDisplay:10.37,2013-08-11 22:07:00,
2013-08-11 16:13:00,85.5,52.2,24.54,NE,45,3.5,3.5,32,0.00,CLR,,0.00,WeatherDisplay:10.37,2013-08-11 22:13:00,
2013-08-11 16:18:00,86.5,50.5,24.54,South,180,8.1,8.1,29,0.00,CLR,,0.00,WeatherDisplay:10.37,2013-08-11 22:18:00,
2013-08-11 16:23:00,83.5,51.3,24.54,South,180,8.1,8.1,33,0.00,CLR,,0.00,WeatherDisplay:10.37,2013-08-11 22:23:00,
2013-08-11 16:28:00,83.1,50.2,24.54,East,90,5.8,5.8,32,0.00,CLR,,0.00,WeatherDisplay:10.37,2013-08-11 22:28:00,
2013-08-11 16:34:00,84.0,51.8,24.54,SW,225,4.6,4.6,33,0.00,CLR,,0.00,WeatherDisplay:10.37,2013-08-11 22:34:00,
2013-08-11 16:39:00,86.2,50.2,24.53,SE,135,5.8,5.8,29,0.00,CLR,,0.00,WeatherDisplay:10.37,2013-08-11 22:39:00,
2013-08-11 16:44:00,85.6,49.7,24.53,NW,315,6.9,6.9,29,0.00,CLR,,0.00,WeatherDisplay:10.37,2013-08-11 22:44:00,
2013-08-11 16:49:00,85.1,48.3,24.53,North,0,4.6,4.6,28,0.00,CLR,,0.00,WeatherDisplay:10.37,2013-08-11 22:49:00,
2013-08-11 16:54:00,86.0,48.1,24.53,WNW,292,6.9,6.9,27,0.00,CLR,,0.00,WeatherDisplay:10.37,2013-08-11 22:54:00,
2013-08-11 17:00:00,85.6,47.8,24.53,WSW,248,10.4,10.4,27,0.00,CLR,,0.00,WeatherDisplay:10.37,2013-08-11 23:00:00,
2013-08-11 17:05:00,84.7,47.1,24.53,South,180,5.8,5.8,27,0.00,CLR,,0.00,WeatherDisplay:10.37,2013-08-11 23:05:00,
2013-08-11 17:10:00,85.1,50.2,24.52,SE,135,8.1,8.1,30,0.00,CLR,,0.00,WeatherDisplay:10.37,2013-08-11 23:10:00,
2013-08-11 17:16:00,84.6,50.6,24.52,South,180,11.5,11.5,31,0.00,CLR,,0.00,WeatherDisplay:10.37,2013-08-11 23:16:00,
2013-08-11 17:21:00,85.5,50.5,24.52,SW,225,6.9,6.9,30,0.00,CLR,,0.00,WeatherDisplay:10.37,2013-08-11 23:21:00,
2013-08-11 17:27:00,85.8,50.8,24.52,SW,225,4.6,4.6,30,0.00,CLR,,0.00,WeatherDisplay:10.37,2013-08-11 23:27:00,
2013-08-11 17:32:00,86.4,49.4,24.52,SW,225,4.6,4.6,28,0.00,CLR,,0.00,WeatherDisplay:10.37,2013-08-11 23:32:00,
2013-08-11 17:37:00,86.9,49.9,24.52,SE,135,5.8,5.8,28,0.00,CLR,,0.00,WeatherDisplay:10.37,2013-08-11 23:37:00,
2013-08-11 17:42:00,85.5,49.6,24.52,South,180,9.2,9.2,29,0.00,CLR,,0.00,WeatherDisplay:10.37,2013-08-11 23:42:00,
2013-08-11 17:48:00,86.4,49.4,24.52,WSW,248,11.5,11.5,28,0.00,CLR,,0.00,WeatherDisplay:10.37,2013-08-11 23:48:00,
2013-08-11 17:53:00,85.6,48.8,24.52,South,180,10.4,10.4,28,0.00,CLR,,0.00,WeatherDisplay:10.37,2013-08-11 23:53:00,
2013-08-11 17:58:00,85.8,48.0,24.51,SE,135,12.7,12.7,27,0.00,CLR,,0.00,WeatherDisplay:10.37,2013-08-11 23:58:00,
2013-08-11 18:03:00,84.6,46.9,24.52,South,180,5.8,5.8,27,0.00,CLR,,0.00,WeatherDisplay:10.37,2013-08-12 00:03:00,
2013-08-11 18:08:00,86.4,47.4,24.52,SW,225,5.8,5.8,26,0.00,CLR,,0.00,WeatherDisplay:10.37,2013-08-12 00:08:00,
2013-08-11 18:14:00,86.5,47.6,24.51,SW,225,4.6,4.6,26,0.00,CLR,,0.00,WeatherDisplay:10.37,2013-08-12 00:14:00,
2013-08-11 18:19:00,87.3,47.1,24.51,West,270,4.5,4.5,25,0.00,CLR,,0.00,WeatherDisplay:10.37,2013-08-12 00:19:00,
2013-08-11 18:25:00,87.3,47.1,24.51,SW,225,5.8,5.8,25,0.00,CLR,,0.00,WeatherDisplay:10.37,2013-08-12 00:25:00,
2013-08-11 18:30:00,87.3,48.2,24.51,SW,225,4.6,4.6,26,0.00,CLR,,0.00,WeatherDisplay:10.37,2013-08-12 00:30:00,
2013-08-11 18:35:00,86.0,47.1,24.51,South,180,10.4,10.4,26,0.00,CLR,,0.00,WeatherDisplay:10.37,2013-08-12 00:35:00,
2013-08-11 18:41:00,84.2,49.4,24.51,SW,225,5.8,5.8,30,0.00,CLR,,0.00,WeatherDisplay:10.37,2013-08-12 00:41:00,
2013-08-11 18:47:00,83.7,49.8,24.51,SE,135,8.1,8.1,31,0.00,CLR,,0.00,WeatherDisplay:10.37,2013-08-12 00:47:00,
2013-08-11 18:52:00,82.6,49.7,24.51,South,180,10.4,10.4,32,0.00,CLR,,0.00,WeatherDisplay:10.37,2013-08-12 00:52:00,
2013-08-11 18:58:00,83.1,49.3,24.51,South,180,5.8,5.8,31,0.00,CLR,,0.00,WeatherDisplay:10.37,2013-08-12 00:58:00,
2013-08-11 19:03:00,82.6,48.9,24.51,South,180,8.1,8.1,31,0.00,CLR,,0.00,WeatherDisplay:10.37,2013-08-12 01:03:00,
2013-08-11 19:08:00,82.8,50.7,24.51,South,180,8.1,8.1,33,0.00,CLR,,0.00,WeatherDisplay:10.37,2013-08-12 01:08:00,
2013-08-11 19:13:00,82.0,50.1,24.51,North,0,9.2,9.2,33,0.00,CLR,,0.00,WeatherDisplay:10.37,2013-08-12 01:13:00,
2013-08-11 19:18:00,81.3,50.3,24.51,South,180,8.1,8.1,34,0.00,CLR,,0.00,WeatherDisplay:10.37,2013-08-12 01:18:00,
2013-08-11 19:23:00,80.1,51.4,24.51,SW,225,10.4,10.4,37,0.00,CLR,,0.00,WeatherDisplay:10.37,2013-08-12 01:23:00,
2013-08-11 19:28:00,78.8,52.4,24.52,NE,45,9.2,9.2,40,0.00,CLR,,0.00,WeatherDisplay:10.37,2013-08-12 01:28:00,
2013-08-11 19:34:00,78.3,52.6,24.51,South,180,8.1,8.1,41,0.00,CLR,,0.00,WeatherDisplay:10.37,2013-08-12 01:34:00,
2013-08-11 19:39:00,77.7,52.8,24.52,NW,315,5.8,5.8,42,0.00,CLR,,0.00,WeatherDisplay:10.37,2013-08-12 01:39:00,
2013-08-11 19:44:00,77.4,52.5,24.52,South,180,5.8,5.8,42,0.00,CLR,,0.00,WeatherDisplay:10.37,2013-08-12 01:44:00,
2013-08-11 19:50:00,77.0,52.8,24.52,West,270,6.9,6.9,43,0.00,CLR,,0.00,WeatherDisplay:10.37,2013-08-12 01:50:00,
2013-08-11 19:55:00,76.6,52.5,24.52,East,90,8.1,8.1,43,0.00,CLR,,0.00,WeatherDisplay:10.37,2013-08-12 01:55:00,
2013-08-11 20:00:00,76.3,50.8,24.52,SW,225,6.9,6.9,41,0.00,CLR,,0.00,WeatherDisplay:10.37,2013-08-12 02:00:00,
2013-08-11 20:06:00,76.3,50.8,24.52,SW,225,5.8,5.8,41,0.00,CLR,,0.00,WeatherDisplay:10.37,2013-08-12 02:06:00,
2013-08-11 20:11:00,75.9,50.5,24.52,SW,225,5.8,5.8,41,0.00,CLR,,0.00,WeatherDisplay:10.37,2013-08-12 02:11:00,
2013-08-11 20:16:00,75.7,50.4,24.52,West,270,5.8,5.8,41,0.00,CLR,,0.00,WeatherDisplay:10.37,2013-08-12 02:16:00,
2013-08-11 20:21:00,75.4,50.0,24.53,South,180,3.5,3.5,41,0.00,CLR,,0.00,WeatherDisplay:10.37,2013-08-12 02:21:00,
2013-08-11 20:26:00,75.2,51.2,24.53,SW,225,5.8,5.8,43,0.00,CLR,,0.00,WeatherDisplay:10.37,2013-08-12 02:26:00,
2013-08-11 20:33:00,75.0,52.8,24.53,SW,225,4.6,4.6,46,0.00,CLR,,0.00,WeatherDisplay:10.37,2013-08-12 02:33:00,
2013-08-11 20:39:00,74.7,53.1,24.53,NW,315,4.6,4.6,47,0.00,CLR,,0.00,WeatherDisplay:10.37,2013-08-12 02:39:00,
2013-08-11 20:44:00,74.5,53.5,24.53,SSW,202,5.8,5.8,48,0.00,CLR,,0.00,WeatherDisplay:10.37,2013-08-12 02:44:00,
2013-08-11 20:49:00,74.1,53.2,24.53,SW,225,3.5,3.5,48,0.00,CLR,,0.00,WeatherDisplay:10.37,2013-08-12 02:49:00,
2013-08-11 20:54:00,73.9,53.0,24.54,West,270,3.5,3.5,48,0.00,CLR,,0.00,WeatherDisplay:10.37,2013-08-12 02:54:00,
2013-08-11 20:59:00,73.6,53.2,24.54,SW,225,3.5,3.5,49,0.00,CLR,,0.00,WeatherDisplay:10.37,2013-08-12 02:59:00,
2013-08-11 21:05:00,73.2,54.0,24.54,SW,225,4.6,4.6,51,0.00,CLR,,0.00,WeatherDisplay:10.37,2013-08-12 03:05:00,
2013-08-11 21:10:00,73.0,53.8,24.55,SE,135,5.8,5.8,51,0.00,CLR,,0.00,WeatherDisplay:10.37,2013-08-12 03:10:00,
2013-08-11 21:15:00,72.9,54.2,24.55,East,90,3.5,3.5,52,0.00,CLR,,0.00,WeatherDisplay:10.37,2013-08-12 03:15:00,
2013-08-11 21:20:00,72.7,54.6,24.55,SW,225,4.6,4.6,53,0.00,CLR,,0.00,WeatherDisplay:10.37,2013-08-12 03:20:00,
2013-08-11 21:26:00,72.5,54.4,24.55,South,180,3.5,3.5,53,0.00,CLR,,0.00,WeatherDisplay:10.37,2013-08-12 03:26:00,
2013-08-11 21:31:00,72.3,54.7,24.55,SW,225,3.5,3.5,54,0.00,CLR,,0.00,WeatherDisplay:10.37,2013-08-12 03:31:00,
2013-08-11 21:36:00,72.1,54.6,24.55,SW,225,3.5,3.5,54,0.00,CLR,,0.00,WeatherDisplay:10.37,2013-08-12 03:36:00,
2013-08-11 21:41:00,72.0,54.9,24.55,SW,225,3.5,3.5,55,0.00,CLR,,0.00,WeatherDisplay:10.37,2013-08-12 03:41:00,
2013-08-11 21:46:00,71.6,54.6,24.55,WSW,248,2.3,2.3,55,0.00,CLR,,0.00,WeatherDisplay:10.37,2013-08-12 03:46:00,
2013-08-11 21:52:00,71.4,54.9,24.55,SSW,202,2.3,0.0,56,0.00,CLR,,0.00,WeatherDisplay:10.37,2013-08-12 03:52:00,
2013-08-11 21:57:00,71.1,54.6,24.55,South,180,1.1,0.0,56,0.00,CLR,,0.00,WeatherDisplay:10.37,2013-08-12 03:57:00,
2013-08-11 22:01:00,70.9,54.4,24.55,SW,225,1.1,0.0,56,0.00,CLR,,0.00,WeatherDisplay:10.37,2013-08-12 04:01:00,
2013-08-11 22:02:00,70.9,54.4,24.55,SW,225,1.1,0.0,56,0.00,CLR,,0.00,WeatherDisplay:10.37,2013-08-12 04:02:00,
2013-08-11 22:04:00,70.9,54.4,24.55,SW,225,1.1,0.0,56,0.00,CLR,,0.00,WeatherDisplay:10.37,2013-08-12 04:04:00,
2013-08-11 22:09:00,70.5,54.5,24.55,South,180,1.1,0.0,57,0.00,CLR,,0.00,WeatherDisplay:10.37,2013-08-12 04:09:00,
2013-08-11 22:15:00,70.5,55.0,24.55,SW,225,1.1,0.0,58,0.00,CLR,,0.00,WeatherDisplay:10.37,2013-08-12 04:15:00,
2013-08-11 22:20:00,70.5,55.0,24.55,SW,225,1.1,0.0,58,0.00,CLR,,0.00,WeatherDisplay:10.37,2013-08-12 04:20:00,
2013-08-11 22:25:00,70.2,54.7,24.55,South,180,1.1,1.1,58,0.00,CLR,,0.00,WeatherDisplay:10.37,2013-08-12 04:25:00,
2013-08-11 22:30:00,70.0,55.0,24.55,West,270,1.1,0.0,59,0.00,CLR,,0.00,WeatherDisplay:10.37,2013-08-12 04:30:00,
2013-08-11 22:35:00,70.0,55.5,24.55,SW,225,1.1,0.0,60,0.00,CLR,,0.00,WeatherDisplay:10.37,2013-08-12 04:35:00,
2013-08-11 22:41:00,69.6,55.6,24.55,ESE,112,2.3,0.0,61,0.00,CLR,,0.00,WeatherDisplay:10.37,2013-08-12 04:41:00,
2013-08-11 22:46:00,69.6,55.6,24.55,SW,225,1.1,0.0,61,0.00,CLR,,0.00,WeatherDisplay:10.37,2013-08-12 04:46:00,
2013-08-11 22:51:00,69.4,55.9,24.55,SW,225,1.1,1.1,62,0.00,CLR,,0.00,WeatherDisplay:10.37,2013-08-12 04:51:00,
2013-08-11 22:56:00,69.6,56.5,24.55,South,180,2.3,2.3,63,0.00,CLR,,0.00,WeatherDisplay:10.37,2013-08-12 04:56:00,
2013-08-11 23:01:00,69.6,56.5,24.55,SW,225,3.5,0.0,63,0.00,CLR,,0.00,WeatherDisplay:10.37,2013-08-12 05:01:00,
2013-08-11 23:07:00,69.6,56.5,24.55,South,180,1.1,0.0,63,0.00,CLR,,0.00,WeatherDisplay:10.37,2013-08-12 05:07:00,
2013-08-11 23:12:00,69.4,56.3,24.55,SE,135,2.3,2.3,63,0.00,CLR,,0.00,WeatherDisplay:10.37,2013-08-12 05:12:00,
2013-08-11 23:17:00,69.6,56.5,24.55,South,180,1.1,0.0,63,0.00,CLR,,0.00,WeatherDisplay:10.37,2013-08-12 05:17:00,
2013-08-11 23:22:00,69.4,56.3,24.55,South,180,2.3,0.0,63,0.00,CLR,,0.00,WeatherDisplay:10.37,2013-08-12 05:22:00,
2013-08-11 23:28:00,69.6,56.9,24.56,SSE,158,2.3,2.3,64,0.00,CLR,,0.00,WeatherDisplay:10.37,2013-08-12 05:28:00,
2013-08-11 23:33:00,69.6,56.5,24.56,South,180,3.5,3.5,63,0.00,CLR,,0.00,WeatherDisplay:10.37,2013-08-12 05:33:00,
2013-08-11 23:38:00,69.4,56.3,24.56,South,180,2.3,2.3,63,0.00,CLR,,0.00,WeatherDisplay:10.37,2013-08-12 05:38:00,
2013-08-11 23:43:00,69.6,56.0,24.56,South,180,3.5,3.5,62,0.00,CLR,,0.00,WeatherDisplay:10.37,2013-08-12 05:43:00,
2013-08-11 23:48:00,69.6,56.0,24.56,South,180,3.5,3.5,62,0.00,CLR,,0.00,WeatherDisplay:10.37,2013-08-12 05:48:00,
2013-08-11 23:54:00,69.4,55.9,24.56,SW,225,3.5,3.5,62,0.00,CLR,,0.00,WeatherDisplay:10.37,2013-08-12 05:54:00,
2013-08-11 23:59:00,69.1,55.5,24.56,South,180,3.5,3.5,62,0.00,CLR,,0.00,WeatherDisplay:10.37,2013-08-12 05:59:00,